Time;durP1;ratioP1;P1;durP2;ratioP2;P2;SDS_P1;SDS_P2;PMS_P1;PMS_P2;Temp;Humidity;BMP_temperature;BMP_pressure;BME280_temperature;BME280_humidity;BME280_pressure;Samples;Min_cycle;Max_cycle;Signal;HPM_P1;HPM_P2
2021/10/12 00:02:23;;;;;;;65.20;48.00;;;;;;;7.64;91.94;99093.73;112890;1190;65199;-85
2021/10/12 00:04:50;;;;;;;58.40;42.80;;;;;;;7.67;92.34;99095.02;112915;1189;60182;-85
2021/10/12 00:07:16;;;;;;;64.20;44.20;;;;;;;7.69;92.53;99098.29;112877;1189;62639;-85
2021/10/12 00:09:43;;;;;;;61.30;44.10;;;;;;;7.70;92.66;99095.55;112874;1188;60364;-84
2021/10/12 00:12:10;;;;;;;57.40;42.50;;;;;;;7.73;92.77;99092.23;112915;1188;60271;-84
2021/10/12 00:14:36;;;;;;;58.00;43.70;;;;;;;7.76;92.96;99088.02;112838;1189;66218;-84
2021/10/12 00:17:03;;;;;;;59.40;43.20;;;;;;;7.78;93.13;99087.17;112899;1190;60172;-84
2021/10/12 00:19:30;;;;;;;53.60;40.10;;;;;;;7.81;93.28;99093.05;112784;1189;64993;-84
2021/10/12 00:21:58;;;;;;;55.40;39.10;;;;;;;7.84;93.30;99093.77;112937;1190;60185;-84
2021/10/12 00:24:25;;;;;;;57.70;40.10;;;;;;;7.85;93.49;99092.64;112897;1189;60293;-84
2021/10/12 00:26:51;;;;;;;53.50;38.60;;;;;;;7.86;93.41;99093.31;112876;1189;63871;-83
2021/10/12 00:29:18;;;;;;;53.00;38.20;;;;;;;7.86;93.50;99089.25;112917;1174;60210;-83
2021/10/12 00:31:44;;;;;;;49.00;36.50;;;;;;;7.86;93.68;99087.47;112848;1189;63856;-83
2021/10/12 00:34:11;;;;;;;52.90;39.30;;;;;;;7.85;93.70;99085.55;112794;1190;60274;-83
2021/10/12 00:36:38;;;;;;;55.30;39.00;;;;;;;7.85;93.88;99084.30;112850;1189;60191;-83
2021/10/12 00:39:05;;;;;;;54.90;39.70;;;;;;;7.86;93.91;99087.66;112880;1190;64133;-84
2021/10/12 00:41:32;;;;;;;52.60;42.30;;;;;;;7.85;93.89;99085.37;112929;1189;60328;-85
2021/10/12 00:44:00;;;;;;;57.90;44.00;;;;;;;7.84;94.06;99085.79;112888;1190;65248;-86
2021/10/12 00:46:27;;;;;;;60.00;46.70;;;;;;;7.84;94.00;99084.53;112894;1190;60853;-84
2021/10/12 00:48:57;;;;;;;57.80;45.90;;;;;;;7.86;94.14;99083.90;112889;1189;60236;-84
2021/10/12 00:51:25;;;;;;;61.10;47.70;;;;;;;7.89;94.12;99082.16;113005;1188;65820;-83
2021/10/12 00:53:51;;;;;;;62.90;45.60;;;;;;;7.91;94.21;99080.81;112567;1190;60305;-85
2021/10/12 00:56:19;;;;;;;60.40;46.50;;;;;;;7.91;94.19;99079.02;113343;1190;62677;-85
2021/10/12 00:58:47;;;;;;;66.10;47.60;;;;;;;7.93;94.36;99072.77;113133;1189;60236;-85
2021/10/12 01:01:14;;;;;;;61.10;46.30;;;;;;;7.93;94.31;99074.18;113823;1190;60159;-85
2021/10/12 01:03:41;;;;;;;58.70;44.50;;;;;;;7.95;94.31;99076.70;113690;1189;65364;-85
2021/10/12 01:06:08;;;;;;;62.00;45.30;;;;;;;7.95;94.34;99070.89;113134;1190;60195;-85
2021/10/12 01:08:35;;;;;;;56.60;41.20;;;;;;;7.96;94.35;99072.60;113003;1190;62644;-85
2021/10/12 01:11:01;;;;;;;52.20;39.30;;;;;;;7.97;94.38;99068.85;112916;1189;60232;-85
2021/10/12 01:13:28;;;;;;;46.10;36.00;;;;;;;7.97;94.44;99067.91;112889;1184;60231;-85
2021/10/12 01:15:55;;;;;;;37.60;28.60;;;;;;;7.98;94.42;99065.55;112997;1190;65428;-86
2021/10/12 01:18:21;;;;;;;40.20;32.00;;;;;;;7.99;94.25;99064.31;112922;1189;60161;-86
2021/10/12 01:20:52;;;;;;;41.00;33.30;;;;;;;7.98;94.29;99062.04;112906;1174;62607;-86
2021/10/12 01:23:20;;;;;;;39.40;31.50;;;;;;;8.01;94.35;99060.84;112906;1189;60210;-85
2021/10/12 01:25:47;;;;;;;38.80;28.70;;;;;;;8.00;94.31;99059.45;112956;1181;60156;-84
2021/10/12 01:28:15;;;;;;;37.30;27.20;;;;;;;7.98;94.19;99063.63;112936;1189;63862;-84
2021/10/12 01:30:42;;;;;;;33.80;25.70;;;;;;;7.96;94.11;99063.73;112990;1190;60271;-85
2021/10/12 01:33:10;;;;;;;29.80;22.50;;;;;;;7.93;93.96;99064.94;112999;1189;62939;-84
2021/10/12 01:35:37;;;;;;;29.90;21.50;;;;;;;7.89;93.85;99065.86;112976;1189;60300;-84
2021/10/12 01:38:04;;;;;;;31.50;23.10;;;;;;;7.86;93.68;99064.61;113026;1189;60185;-85
2021/10/12 01:40:31;;;;;;;30.00;24.20;;;;;;;7.85;93.75;99062.90;112690;1190;65240;-85
2021/10/12 01:42:58;;;;;;;33.10;24.60;;;;;;;7.87;93.99;99055.76;112965;1188;60152;-85
2021/10/12 01:45:25;;;;;;;27.30;23.30;;;;;;;7.88;93.87;99051.25;112918;1189;64003;-85
2021/10/12 01:47:53;;;;;;;31.20;23.70;;;;;;;7.88;93.84;99047.34;112926;1189;60208;-85
2021/10/12 01:50:21;;;;;;;34.90;23.80;;;;;;;7.89;93.89;99044.80;112974;1189;60239;-85
2021/10/12 01:52:48;;;;;;;28.60;21.70;;;;;;;7.90;94.05;99042.14;112882;1188;65470;-85
2021/10/12 01:55:17;;;;;;;31.70;23.90;;;;;;;7.89;93.88;99037.58;112971;1189;60217;-84
2021/10/12 01:57:44;;;;;;;30.90;24.20;;;;;;;7.89;93.98;99037.07;112875;1189;62691;-85
2021/10/12 02:00:29;;;;;;;36.30;24.80;;;;;;;7.89;94.01;99035.99;112925;1189;60223;-85
2021/10/12 02:02:55;;;;;;;30.60;25.90;;;;;;;7.87;93.85;99030.24;112955;1189;60172;-85
2021/10/12 02:05:22;;;;;;;33.60;27.70;;;;;;;7.83;93.79;99025.49;112969;1190;65242;-85
2021/10/12 02:07:49;;;;;;;40.00;32.80;;;;;;;7.80;93.75;99026.92;112858;1189;60130;-84
2021/10/12 02:10:15;;;;;;;35.20;27.10;;;;;;;7.76;93.75;99029.65;112952;1190;64093;-86
2021/10/12 02:12:42;;;;;;;31.50;24.90;;;;;;;7.74;93.68;99027.81;112871;1189;60307;-84
2021/10/12 02:15:10;;;;;;;30.10;24.40;;;;;;;7.72;93.61;99027.02;112815;1189;60156;-84
2021/10/12 02:17:36;;;;;;;30.40;25.00;;;;;;;7.69;93.86;99023.45;112977;1189;73050;-84
2021/10/12 02:20:04;;;;;;;31.80;25.40;;;;;;;7.66;93.76;99020.61;112913;1190;60887;-84
2021/10/12 02:22:31;;;;;;;29.60;25.20;;;;;;;7.61;93.76;99017.17;112873;1189;64030;-84
2021/10/12 02:24:58;;;;;;;31.10;26.10;;;;;;;7.60;93.90;99019.57;112913;1189;60259;-84
2021/10/12 02:27:25;;;;;;;28.90;24.40;;;;;;;7.59;93.96;99022.95;112850;1189;60191;-84
2021/10/12 02:29:52;;;;;;;34.30;26.20;;;;;;;7.58;93.88;99022.51;112859;1190;64866;-84
2021/10/12 02:32:19;;;;;;;31.20;24.30;;;;;;;7.59;94.05;99024.94;112997;1189;60235;-84
2021/10/12 02:34:46;;;;;;;31.50;25.80;;;;;;;7.58;93.99;99021.77;112846;1188;63984;-83
2021/10/12 02:37:13;;;;;;;27.10;22.30;;;;;;;7.58;94.08;99021.45;112884;1189;60191;-84
2021/10/12 02:39:39;;;;;;;29.80;23.40;;;;;;;7.56;94.18;99022.24;112938;1189;60248;-84
2021/10/12 02:42:06;;;;;;;36.60;24.30;;;;;;;7.57;94.24;99023.06;112922;1189;65201;-84
2021/10/12 02:44:33;;;;;;;30.20;23.50;;;;;;;7.57;94.36;99023.95;112864;1189;61383;-84
2021/10/12 02:47:00;;;;;;;36.20;28.50;;;;;;;7.57;94.36;99021.83;112920;1189;63659;-84
2021/10/12 02:49:27;;;;;;;35.00;30.20;;;;;;;7.57;94.40;99013.89;112924;1190;60236;-84
2021/10/12 02:51:54;;;;;;;35.50;29.00;;;;;;;7.57;94.49;99009.27;112878;1189;60188;-84
2021/10/12 02:54:21;;;;;;;34.70;30.10;;;;;;;7.58;94.55;99010.63;113126;1190;63835;-84
2021/10/12 02:56:48;;;;;;;35.50;28.10;;;;;;;7.58;94.61;99009.95;112908;1190;60271;-84
2021/10/12 02:59:14;;;;;;;35.90;27.30;;;;;;;7.59;94.78;99003.86;112881;1189;64113;-84
2021/10/12 03:01:41;;;;;;;37.40;28.00;;;;;;;7.60;94.72;99007.31;112901;1188;60220;-83
2021/10/12 03:04:08;;;;;;;36.10;28.10;;;;;;;7.64;94.88;99005.54;112923;1188;60306;-83
2021/10/12 03:06:34;;;;;;;32.00;25.30;;;;;;;7.69;95.08;99005.25;112882;1190;63865;-84
2021/10/12 03:09:02;;;;;;;31.30;26.00;;;;;;;7.74;95.04;99004.10;112908;1189;60210;-83
2021/10/12 03:11:29;;;;;;;30.90;24.90;;;;;;;7.75;94.88;99001.92;112903;1190;62621;-84
2021/10/12 03:13:55;;;;;;;31.60;25.70;;;;;;;7.76;94.84;98999.05;112893;1188;60230;-84
2021/10/12 03:16:22;;;;;;;35.10;25.90;;;;;;;7.75;94.97;98996.43;112900;1190;60156;-84
2021/10/12 03:18:50;;;;;;;34.60;26.80;;;;;;;7.73;94.86;98997.77;112931;1190;65193;-84
2021/10/12 03:21:18;;;;;;;32.90;25.70;;;;;;;7.72;94.96;98996.80;113032;1190;60175;-83
2021/10/12 03:23:45;;;;;;;34.90;26.00;;;;;;;7.70;94.94;98994.44;113022;1190;63647;-84
2021/10/12 03:26:11;;;;;;;32.80;25.40;;;;;;;7.69;95.07;98989.31;112952;1188;60207;-85
2021/10/12 03:28:38;;;;;;;30.40;25.90;;;;;;;7.70;95.08;98989.31;113004;1189;60278;-84
2021/10/12 03:31:05;;;;;;;29.70;22.80;;;;;;;7.71;95.22;98989.40;113039;1189;65184;-84
2021/10/12 03:33:31;;;;;;;27.50;23.00;;;;;;;7.73;95.09;98986.12;113720;1189;60239;-83
2021/10/12 03:36:11;;;;;;;28.20;23.80;;;;;;;7.77;95.13;98988.54;113341;1189;62592;-85
2021/10/12 03:38:38;;;;;;;28.20;22.60;;;;;;;7.77;95.04;98993.49;113475;1189;60239;-85
2021/10/12 03:41:05;;;;;;;31.20;24.70;;;;;;;7.76;95.06;98987.91;113486;1189;60188;-85
2021/10/12 03:43:32;;;;;;;30.40;24.10;;;;;;;7.77;95.17;98980.09;113065;1190;66199;-85
2021/10/12 03:45:59;;;;;;;30.60;21.40;;;;;;;7.76;95.01;98965.83;112879;1189;60255;-86
2021/10/12 03:48:26;;;;;;;26.90;20.70;;;;;;;7.70;94.99;98956.39;112887;1174;62321;-86
2021/10/12 03:50:53;;;;;;;29.70;21.30;;;;;;;7.59;94.84;98958.59;112911;1190;60210;-83
2021/10/12 03:53:19;;;;;;;29.90;23.50;;;;;;;7.46;94.98;98958.96;112840;1189;60276;-86
2021/10/12 03:55:46;;;;;;;31.10;24.30;;;;;;;7.38;95.20;98954.08;112861;1190;65231;-86
2021/10/12 03:58:13;;;;;;;27.80;22.20;;;;;;;7.35;95.37;98950.90;112959;1190;60356;-83
2021/10/12 04:00:39;;;;;;;27.40;21.50;;;;;;;7.34;95.40;98950.59;112752;1190;63663;-86
2021/10/12 04:03:06;;;;;;;32.50;22.80;;;;;;;7.36;95.49;98944.66;112870;1189;60360;-86
2021/10/12 04:05:32;;;;;;;27.00;21.60;;;;;;;7.39;95.52;98940.60;112860;1190;60191;-84
2021/10/12 04:07:59;;;;;;;28.40;22.40;;;;;;;7.42;95.50;98942.88;112925;1189;63842;-84
2021/10/12 04:10:26;;;;;;;30.70;22.60;;;;;;;7.44;95.49;98941.55;112967;1189;60270;-84
2021/10/12 04:12:52;;;;;;;31.40;23.70;;;;;;;7.48;95.61;98940.84;112992;1189;63990;-84
2021/10/12 04:15:19;;;;;;;33.00;23.50;;;;;;;7.50;95.51;98940.56;113032;1189;60232;-84
2021/10/12 04:17:46;;;;;;;37.30;25.60;;;;;;;7.50;95.52;98940.35;112998;1189;60223;-83
2021/10/12 04:20:13;;;;;;;40.50;30.20;;;;;;;7.52;95.60;98939.38;113167;1190;65225;-84
2021/10/12 04:22:40;;;;;;;45.80;34.10;;;;;;;7.55;95.74;98932.84;112725;1190;60342;-84
2021/10/12 04:25:07;;;;;;;65.30;39.90;;;;;;;7.57;95.71;98930.92;112964;1190;63809;-85
2021/10/12 04:27:34;;;;;;;58.60;37.70;;;;;;;7.58;95.74;98928.24;112872;1190;60184;-84
2021/10/12 04:30:01;;;;;;;45.70;34.80;;;;;;;7.59;95.82;98931.74;112914;1189;60239;-84
2021/10/12 04:32:28;;;;;;;42.50;32.10;;;;;;;7.61;95.89;98932.34;112884;1189;63843;-84
2021/10/12 04:34:55;;;;;;;44.60;32.40;;;;;;;7.64;95.94;98935.16;112931;1189;60239;-84
2021/10/12 04:37:22;;;;;;;39.10;29.90;;;;;;;7.65;95.76;98928.71;112890;1189;64001;-85
2021/10/12 04:39:50;;;;;;;37.70;30.10;;;;;;;7.67;95.78;98925.41;112921;1190;60325;-85
2021/10/12 04:42:16;;;;;;;38.90;28.50;;;;;;;7.70;95.74;98917.11;112887;1190;60207;-85
2021/10/12 04:44:47;;;;;;;34.50;28.00;;;;;;;7.72;95.74;98916.52;112810;1190;65181;-85
2021/10/12 04:47:16;;;;;;;41.60;29.70;;;;;;;7.72;95.81;98914.04;112924;1190;60194;-85
2021/10/12 04:49:43;;;;;;;39.10;29.60;;;;;;;7.72;95.72;98912.44;112927;1189;64663;-85
2021/10/12 04:52:09;;;;;;;36.60;28.00;;;;;;;7.73;95.68;98910.28;112837;1189;60248;-86
2021/10/12 04:54:37;;;;;;;42.20;29.40;;;;;;;7.72;95.74;98908.55;112930;1190;60108;-85
2021/10/12 04:57:04;;;;;;;40.10;28.70;;;;;;;7.72;95.68;98902.00;112931;1189;63839;-87
2021/10/12 04:59:31;;;;;;;38.10;29.90;;;;;;;7.73;95.81;98897.36;112900;1189;60688;-85
2021/10/12 05:01:58;;;;;;;33.80;24.00;;;;;;;7.75;95.72;98894.44;112922;1190;63836;-85
2021/10/12 05:04:25;;;;;;;37.30;27.20;;;;;;;7.77;95.66;98892.35;112891;1189;60233;-85
2021/10/12 05:06:51;;;;;;;34.20;25.50;;;;;;;7.79;95.51;98887.81;112711;1189;60251;-85
2021/10/12 05:09:18;;;;;;;38.50;28.10;;;;;;;7.79;95.51;98889.38;112911;1190;63929;-85
2021/10/12 05:11:45;;;;;;;44.80;29.60;;;;;;;7.79;95.47;98884.79;112915;1190;67661;-85
2021/10/12 05:14:13;;;;;;;44.40;32.90;;;;;;;7.80;95.58;98883.50;112898;1190;63843;-84
2021/10/12 05:16:40;;;;;;;47.40;35.00;;;;;;;7.79;95.51;98891.48;112905;1189;60185;-84
2021/10/12 05:19:06;;;;;;;39.60;29.50;;;;;;;7.80;95.66;98896.08;112902;1190;60226;-85
2021/10/12 05:21:33;;;;;;;37.10;27.70;;;;;;;7.81;95.74;98895.81;112939;1188;63900;-84
2021/10/12 05:24:00;;;;;;;35.10;26.30;;;;;;;7.82;95.75;98896.27;112906;1190;60722;-84
2021/10/12 05:26:27;;;;;;;37.50;25.50;;;;;;;7.83;95.64;98899.62;112902;1190;62320;-85
2021/10/12 05:28:54;;;;;;;36.40;27.20;;;;;;;7.82;95.72;98897.90;112993;1190;60619;-84
2021/10/12 05:31:21;;;;;;;35.80;26.30;;;;;;;7.82;95.60;98896.11;112993;1190;60229;-84
2021/10/12 05:33:49;;;;;;;32.80;25.40;;;;;;;7.85;95.47;98900.91;113102;1189;64862;-84
2021/10/12 05:36:16;;;;;;;31.60;25.20;;;;;;;7.87;95.40;98900.93;112998;1189;60839;-85
2021/10/12 05:38:43;;;;;;;31.50;25.40;;;;;;;7.92;95.41;98897.30;112943;1190;62946;-84
2021/10/12 05:41:10;;;;;;;31.80;25.30;;;;;;;7.99;95.43;98897.64;112966;1189;60233;-84
2021/10/12 05:43:38;;;;;;;33.10;23.70;;;;;;;8.02;95.17;98897.78;112948;1189;60226;-84
2021/10/12 05:46:05;;;;;;;28.50;21.90;;;;;;;8.02;95.11;98894.97;113005;1189;66187;-84
2021/10/12 05:48:32;;;;;;;29.30;22.10;;;;;;;8.00;95.03;98895.08;112868;1190;60222;-85
2021/10/12 05:50:59;;;;;;;30.50;20.50;;;;;;;8.01;95.30;98901.23;112899;1190;63676;-85
2021/10/12 05:53:32;;;;;;;27.30;21.30;;;;;;;8.00;95.09;98896.85;112881;1189;60212;-86
2021/10/12 05:58:35;;;;;;;27.30;21.40;;;;;;;8.01;95.16;98900.48;113108;1190;64855;-84
2021/10/12 06:01:03;;;;;;;25.90;20.50;;;;;;;8.04;95.11;98897.70;113218;1190;60222;-84
2021/10/12 06:03:30;;;;;;;28.20;20.60;;;;;;;8.07;95.02;98899.63;113037;1188;63935;-84
2021/10/12 06:05:57;;;;;;;26.50;20.60;;;;;;;8.12;94.91;98899.12;113473;1189;60248;-84
2021/10/12 06:08:24;;;;;;;26.90;20.60;;;;;;;8.17;94.85;98895.50;113440;1190;60338;-83
2021/10/12 06:10:50;;;;;;;27.10;20.70;;;;;;;8.21;94.64;98896.15;113629;1189;63478;-85
2021/10/12 06:13:17;;;;;;;32.50;21.80;;;;;;;8.21;94.55;98895.77;114199;1190;60028;-85
2021/10/12 06:15:45;;;;;;;30.60;23.40;;;;;;;8.21;94.62;98901.11;114567;1190;63995;-86
2021/10/12 06:18:12;;;;;;;29.70;21.40;;;;;;;8.22;94.64;98900.17;113563;1188;60175;-85
2021/10/12 06:20:39;;;;;;;29.20;20.90;;;;;;;8.21;94.48;98899.67;112946;1190;60341;-86
2021/10/12 06:23:06;;;;;;;28.40;20.40;;;;;;;8.22;94.38;98900.52;112878;1189;65230;-86
2021/10/12 06:25:33;;;;;;;23.90;19.10;;;;;;;8.31;94.30;98901.77;112953;1189;60200;-84
2021/10/12 06:28:00;;;;;;;27.50;19.70;;;;;;;8.44;93.82;98902.09;112857;1190;64107;-84
2021/10/12 06:30:27;;;;;;;20.10;16.60;;;;;;;8.56;93.74;98900.98;112897;1189;60162;-84
2021/10/12 06:32:54;;;;;;;22.50;16.80;;;;;;;8.62;93.43;98900.84;112941;1190;60262;-83
2021/10/12 06:35:21;;;;;;;20.60;16.70;;;;;;;8.59;93.38;98910.61;112954;1190;66191;-84
2021/10/12 06:37:48;;;;;;;22.50;15.80;;;;;;;8.53;93.43;98908.11;112957;1189;60159;-84
2021/10/12 06:40:15;;;;;;;19.10;16.20;;;;;;;8.48;93.36;98906.84;112833;1180;64013;-84
2021/10/12 06:42:41;;;;;;;20.80;17.60;;;;;;;8.42;93.28;98912.33;112887;1190;60156;-84
2021/10/12 06:45:11;;;;;;;24.30;17.50;;;;;;;8.41;93.46;98914.65;112962;1188;60181;-84
2021/10/12 06:47:38;;;;;;;26.00;18.30;;;;;;;8.43;93.40;98916.83;113037;1189;65468;-84
2021/10/12 06:50:05;;;;;;;23.80;17.80;;;;;;;8.48;93.32;98914.77;112842;1190;60334;-84
2021/10/12 06:52:32;;;;;;;30.10;18.90;;;;;;;8.55;93.03;98919.67;112935;1188;64927;-84
2021/10/12 06:54:59;;;;;;;22.00;16.80;;;;;;;8.58;92.96;98917.34;112946;1190;60317;-84
2021/10/12 06:57:25;;;;;;;21.60;18.00;;;;;;;8.59;92.86;98919.78;112917;1189;60225;-84
2021/10/12 06:59:52;;;;;;;27.60;19.00;;;;;;;8.59;92.81;98921.56;112857;1189;65215;-84
2021/10/12 07:02:18;;;;;;;23.20;17.00;;;;;;;8.62;92.62;98919.42;112924;1190;60163;-85
2021/10/12 07:04:45;;;;;;;25.60;18.10;;;;;;;8.67;92.33;98918.95;112956;1189;64025;-85
2021/10/12 07:07:12;;;;;;;24.60;18.10;;;;;;;8.73;92.10;98918.05;112697;1190;60242;-85
2021/10/12 07:09:39;;;;;;;25.20;18.50;;;;;;;8.91;91.97;98917.14;112908;1190;60255;-85
2021/10/12 07:12:06;;;;;;;27.70;19.80;;;;;;;9.10;91.58;98912.44;112927;1190;65218;-84
2021/10/12 07:14:33;;;;;;;26.90;20.30;;;;;;;9.11;91.47;98913.92;112967;1191;60566;-85
2021/10/12 07:16:59;;;;;;;24.70;20.10;;;;;;;9.06;91.40;98917.79;112903;1190;62470;-85
2021/10/12 07:19:27;;;;;;;21.80;17.30;;;;;;;9.00;91.40;98915.17;112877;1190;60259;-84
2021/10/12 07:21:54;;;;;;;22.40;17.40;;;;;;;8.99;91.45;98910.27;112909;1190;60677;-84
2021/10/12 07:24:22;;;;;;;20.20;16.00;;;;;;;8.98;91.24;98909.26;112998;1190;65363;-84
2021/10/12 07:26:49;;;;;;;19.60;16.00;;;;;;;9.00;91.15;98917.33;112915;1189;60178;-87
2021/10/12 07:29:17;;;;;;;24.80;17.70;;;;;;;9.05;90.88;98916.80;112919;1189;64094;-85
2021/10/12 07:31:44;;;;;;;23.50;19.30;;;;;;;9.23;90.87;98915.14;112907;1189;60133;-85
2021/10/12 07:34:11;;;;;;;20.20;18.00;;;;;;;9.48;90.19;98912.85;112893;1189;60156;-85
2021/10/12 07:36:38;;;;;;;26.10;19.00;;;;;;;9.64;89.66;98912.92;112894;1189;66217;-85
2021/10/12 07:39:07;;;;;;;25.90;19.80;;;;;;;9.76;89.52;98904.88;112901;1189;60050;-85
2021/10/12 07:41:35;;;;;;;24.90;19.30;;;;;;;9.89;89.23;98907.39;112953;1189;63757;-84
2021/10/12 07:44:03;;;;;;;26.30;20.20;;;;;;;10.00;88.91;98908.99;112927;1190;60236;-85
2021/10/12 07:46:30;;;;;;;30.60;20.80;;;;;;;10.19;88.42;98905.42;112960;1190;60234;-84
2021/10/12 07:49:00;;;;;;;24.50;19.80;;;;;;;10.42;88.80;98903.53;112876;1190;65927;-85
2021/10/12 07:51:28;;;;;;;24.00;19.00;;;;;;;10.47;88.12;98900.84;112913;1189;60900;-85
2021/10/12 07:53:58;;;;;;;21.70;17.40;;;;;;;10.31;87.97;98898.36;112886;1189;64084;-85
2021/10/12 07:56:43;;;;;;;21.20;17.60;;;;;;;10.20;87.64;98897.89;112898;1189;60220;-86
2021/10/12 07:59:11;;;;;;;24.80;18.30;;;;;;;10.28;87.64;98898.79;112882;1189;60156;-86
2021/10/12 08:01:39;;;;;;;23.90;18.40;;;;;;;10.41;87.65;98898.81;113002;1190;66339;-86
2021/10/12 08:04:06;;;;;;;23.20;19.00;;;;;;;10.48;87.20;98899.60;112913;1190;60245;-87
2021/10/12 08:06:32;;;;;;;20.50;17.90;;;;;;;10.52;87.08;98894.46;112930;1190;62619;-84
2021/10/12 08:08:59;;;;;;;25.10;19.50;;;;;;;10.62;87.03;98888.85;113101;1190;60240;-85
2021/10/12 08:11:27;;;;;;;24.30;20.50;;;;;;;10.73;86.51;98889.13;112972;1190;60236;-87
2021/10/12 08:14:00;;;;;;;23.00;20.60;;;;;;;10.88;86.24;98889.34;113359;1190;65194;-90
2021/10/12 08:16:30;;;;;;;26.10;21.20;;;;;;;11.00;85.75;98888.00;113193;1190;60255;-90
2021/10/12 08:19:05;;;;;;;24.00;20.80;;;;;;;11.11;85.45;98883.50;113084;1189;64543;-92
2021/10/12 08:25:14;;;;;;;24.80;21.90;;;;;;;11.24;84.97;98881.16;112808;1192;60364;-84
2021/10/12 08:27:42;;;;;;;23.60;20.20;;;;;;;11.40;84.99;98879.64;113029;1190;65210;-88
2021/10/12 08:30:11;;;;;;;25.20;21.50;;;;;;;11.50;84.12;98876.40;112967;1190;60147;-89
2021/10/12 08:32:40;;;;;;;24.50;20.40;;;;;;;11.43;83.86;98875.69;113011;1190;62726;-88
2021/10/12 08:35:08;;;;;;;26.20;21.60;;;;;;;11.38;84.22;98873.02;113134;1190;60162;-94
2021/10/12 08:37:36;;;;;;;25.60;21.00;;;;;;;11.47;83.89;98873.63;113484;1191;60283;-91
2021/10/12 08:40:06;;;;;;;25.80;19.50;;;;;;;11.60;83.70;98873.52;113790;1188;63873;-91
2021/10/12 08:42:44;;;;;;;;;;;;;;;11.73;83.00;98877.38;113024;1190;60261;-91
2021/10/12 08:45:11;;;;;;;29.70;21.50;;;;;;;11.80;82.95;98879.00;113183;1190;63645;-89
2021/10/12 08:47:38;;;;;;;24.30;20.60;;;;;;;11.96;82.52;98874.98;113431;1190;60328;-93
2021/10/12 08:50:16;;;;;;;27.00;21.80;;;;;;;12.09;82.28;98872.08;114702;1189;60127;-89
2021/10/12 08:52:47;;;;;;;20.20;18.00;;;;;;;12.11;82.11;98871.41;115765;1189;65325;-90
2021/10/12 08:55:16;;;;;;;19.80;17.60;;;;;;;11.85;81.66;98872.92;114920;1189;60240;-89
2021/10/12 08:57:44;;;;;;;20.70;18.30;;;;;;;11.49;81.99;98867.22;116622;1189;62387;-90
2021/10/12 09:00:17;;;;;;;22.50;16.90;;;;;;;11.20;82.54;98871.27;114514;1189;60335;-91
2021/10/12 09:05:59;;;;;;;13.20;10.80;;;;;;;10.86;82.41;98880.40;112812;1190;64393;-91
2021/10/12 09:08:32;;;;;;;12.60;7.70;;;;;;;10.88;81.50;98879.42;113073;1190;60268;-92
2021/10/12 09:10:59;;;;;;;12.00;6.30;;;;;;;10.89;80.14;98876.48;112996;1190;62611;-92
2021/10/12 09:13:27;;;;;;;7.50;5.80;;;;;;;10.96;80.01;98870.46;112878;1190;60223;-90
2021/10/12 09:16:06;;;;;;;12.10;5.80;;;;;;;11.03;79.02;98867.18;112900;1189;60252;-91
2021/10/12 09:18:58;;;;;;;12.90;6.40;;;;;;;11.05;78.56;98867.39;112946;1180;65207;-92
2021/10/12 09:21:36;;;;;;;10.80;6.40;;;;;;;11.18;79.57;98860.94;112758;1190;60214;-93
2021/10/12 09:24:12;;;;;;;12.30;6.40;;;;;;;11.38;78.66;98858.75;113067;1190;64118;-91
2021/10/12 09:26:41;;;;;;;7.30;5.40;;;;;;;11.64;78.57;98856.34;112920;1190;60243;-93
2021/10/12 09:29:14;;;;;;;8.50;4.90;;;;;;;11.92;77.79;98853.75;113190;1189;60270;-92
2021/10/12 09:31:44;;;;;;;8.20;5.10;;;;;;;12.17;77.10;98850.45;112855;1190;63876;-91
2021/10/12 09:34:13;;;;;;;5.70;5.10;;;;;;;12.46;76.99;98840.73;112920;1189;60197;-91
2021/10/12 09:36:42;;;;;;;11.90;7.10;;;;;;;12.76;76.22;98838.61;112906;1189;62889;-91
2021/10/12 09:39:14;;;;;;;9.10;5.10;;;;;;;13.05;75.48;98834.19;112983;1188;60162;-92
2021/10/12 09:41:43;;;;;;;8.50;5.20;;;;;;;13.35;75.25;98826.24;112927;1189;60155;-91
2021/10/12 09:44:11;;;;;;;8.70;5.60;;;;;;;13.53;75.58;98822.86;112961;1190;63906;-91
2021/10/12 09:46:46;;;;;;;8.40;5.70;;;;;;;13.48;75.10;98817.39;113021;1189;60229;-91
2021/10/12 09:49:24;;;;;;;10.50;5.30;;;;;;;13.14;74.55;98813.70;112739;1189;62331;-90
2021/10/12 09:52:00;;;;;;;8.40;6.30;;;;;;;12.76;73.87;98816.83;112952;1190;60239;-91
2021/10/12 09:54:41;;;;;;;12.20;6.70;;;;;;;12.41;74.45;98819.21;112847;1189;60287;-90
2021/10/12 09:57:08;;;;;;;10.20;5.10;;;;;;;12.33;74.92;98819.19;112724;1189;65040;-90
2021/10/12 09:59:35;;;;;;;9.80;6.10;;;;;;;12.23;73.92;98821.16;112955;1189;60114;-90
2021/10/12 10:02:02;;;;;;;8.10;6.30;;;;;;;12.08;74.18;98821.02;112869;1190;62537;-90
2021/10/12 10:04:30;;;;;;;10.40;5.40;;;;;;;11.98;74.41;98821.09;112708;1190;60740;-90
2021/10/12 10:07:06;;;;;;;6.80;5.00;;;;;;;11.87;73.93;98819.21;112959;1190;60245;-91
2021/10/12 10:09:35;;;;;;;6.70;4.10;;;;;;;11.79;73.44;98816.59;112963;1190;65231;-90
2021/10/12 10:12:06;;;;;;;7.70;5.30;;;;;;;11.79;73.31;98813.06;112991;1190;60255;-92
2021/10/12 10:14:34;;;;;;;6.50;5.10;;;;;;;11.90;73.45;98807.64;113035;1189;62649;-92
2021/10/12 10:17:02;;;;;;;7.90;5.20;;;;;;;12.10;73.48;98804.88;113161;1189;61052;-91
2021/10/12 10:19:34;;;;;;;9.20;5.40;;;;;;;12.33;72.18;98798.61;112811;1190;61408;-89
2021/10/12 10:22:03;;;;;;;9.60;5.70;;;;;;;12.50;71.10;98795.04;112792;1190;66081;-89
2021/10/12 10:24:44;;;;;;;8.50;4.90;;;;;;;12.53;70.79;98792.47;113135;1190;61032;-93
2021/10/12 10:27:35;;;;;;;5.90;4.50;;;;;;;12.44;69.25;98792.41;112896;1190;63990;-89
2021/10/12 10:30:14;;;;;;;8.10;5.30;;;;;;;12.25;69.73;98792.66;112930;1190;61128;-92
2021/10/12 10:32:50;;;;;;;8.90;5.30;;;;;;;12.12;70.07;98797.44;113063;1190;60934;-91
2021/10/12 10:35:45;;;;;;;7.40;5.20;;;;;;;11.98;70.24;98796.03;113092;1190;64710;-91
2021/10/12 10:38:26;;;;;;;6.60;4.80;;;;;;;11.91;70.52;98794.55;112856;1190;60831;-92
2021/10/12 10:41:05;;;;;;;6.80;4.30;;;;;;;11.86;69.80;98794.59;113257;1190;64026;-89
2021/10/12 10:44:01;;;;;;;9.00;5.30;;;;;;;11.76;69.46;98788.69;113107;1190;61038;-92
2021/10/12 10:46:31;;;;;;;9.80;5.90;;;;;;;11.77;69.81;98780.12;113617;1189;61244;-89
2021/10/12 10:49:13;;;;;;;14.60;7.30;;;;;;;11.82;70.01;98781.33;114914;1189;64493;-90
2021/10/12 10:52:01;;;;;;;9.40;6.70;;;;;;;11.88;69.94;98776.83;113491;1190;61036;-90
2021/10/12 10:54:37;;;;;;;7.80;5.40;;;;;;;12.04;69.92;98766.30;114145;1190;62700;-88
2021/10/12 10:57:20;;;;;;;10.30;5.90;;;;;;;12.36;69.51;98761.52;113263;1190;61042;-90
2021/10/12 11:00:16;;;;;;;5.90;4.90;;;;;;;12.61;68.65;98759.02;112880;1190;61445;-89
2021/10/12 11:02:45;;;;;;;7.30;4.90;;;;;;;12.68;68.09;98757.27;112914;1190;64650;-89
2021/10/12 11:05:38;;;;;;;9.70;6.10;;;;;;;12.62;68.46;98753.80;112897;1189;61068;-90
2021/10/12 11:08:29;;;;;;;8.50;5.40;;;;;;;12.62;68.98;98753.06;112912;1190;63838;-90
2021/10/12 11:11:06;;;;;;;4.30;3.70;;;;;;;12.65;68.76;98752.51;112912;1190;61025;-91
2021/10/12 11:13:39;;;;;;;8.00;4.00;;;;;;;12.66;68.47;98751.14;112977;1189;61042;-91
2021/10/12 11:16:14;;;;;;;6.30;5.50;;;;;;;12.70;68.30;98748.91;113142;1189;64650;-90
2021/10/12 11:18:44;;;;;;;8.80;4.80;;;;;;;12.72;68.11;98745.00;113224;1189;61468;-91
2021/10/12 11:21:16;;;;;;;15.40;9.90;;;;;;;12.73;68.13;98741.29;113256;1190;63654;-90
2021/10/12 11:23:49;;;;;;;9.90;5.10;;;;;;;12.78;68.17;98740.94;113328;1189;60940;-90
2021/10/12 11:26:18;;;;;;;6.20;4.10;;;;;;;12.86;67.75;98738.52;113366;1190;60978;-91
2021/10/12 11:28:53;;;;;;;6.60;4.30;;;;;;;12.91;67.64;98737.56;115955;1189;66046;-88
2021/10/12 11:31:26;;;;;;;7.40;4.70;;;;;;;12.99;67.72;98728.00;115426;1190;60995;-91
2021/10/12 11:33:56;;;;;;;12.60;7.10;;;;;;;13.07;67.97;98723.48;115190;1190;62722;-90
2021/10/12 11:36:27;;;;;;;;;;;;;;;13.09;67.90;98720.99;116614;1189;58538;-89